createdAt,value
2023-04-15T00:02:18.978Z,2.54
2023-04-15T00:04:46.999Z,0.96
2023-04-15T00:07:14.965Z,0.96
2023-04-15T00:09:42.319Z,1.34
2023-04-15T00:12:09.232Z,2.33
2023-04-15T00:14:36.863Z,1.85
2023-04-15T00:17:04.749Z,2.57
2023-04-15T00:19:32.736Z,2.24
2023-04-15T00:22:00.849Z,2.60
2023-04-15T00:24:27.945Z,2.42
2023-04-15T00:26:54.828Z,2.83
2023-04-15T00:29:21.775Z,3.04
2023-04-15T00:31:49.327Z,2.26
2023-04-15T00:34:16.085Z,1.96
2023-04-15T00:36:44.053Z,1.98
2023-04-15T00:39:11.100Z,0.01
2023-04-15T00:41:39.764Z,1.40
2023-04-15T00:44:07.173Z,2.03
2023-04-15T00:46:36.911Z,2.05
2023-04-15T00:49:05.110Z,1.38
2023-04-15T00:51:36.231Z,-0.10
2023-04-15T00:54:04.671Z,0.48
2023-04-15T00:56:31.600Z,2.03
2023-04-15T00:59:00.003Z,0.27
2023-04-15T01:01:27.342Z,1.86
2023-04-15T01:03:56.854Z,-0.24
2023-04-15T01:06:23.790Z,1.47
2023-04-15T01:08:51.033Z,0.25
2023-04-15T01:11:19.395Z,2.04
2023-04-15T01:13:47.626Z,1.68
2023-04-15T01:16:15.140Z,3.52
2023-04-15T01:18:42.553Z,1.92
2023-04-15T01:21:09.680Z,2.97
2023-04-15T01:23:38.680Z,1.81
2023-04-15T01:26:10.405Z,-0.47
2023-04-15T01:28:38.321Z,1.42
2023-04-15T01:31:10.062Z,0.02
2023-04-15T01:33:38.196Z,1.74
2023-04-15T01:36:06.279Z,2.58
2023-04-15T01:38:33.706Z,1.48
2023-04-15T01:41:00.816Z,0.86
2023-04-15T01:43:28.276Z,0.14
2023-04-15T01:45:55.124Z,1.29
2023-04-15T01:48:22.254Z,0.00
2023-04-15T01:50:49.074Z,1.43
2023-04-15T01:53:16.913Z,0.40
2023-04-15T01:55:43.861Z,2.06
2023-04-15T01:58:10.706Z,1.57
2023-04-15T02:00:37.515Z,1.64
2023-04-15T02:03:04.696Z,2.71
2023-04-15T02:05:31.719Z,2.66
2023-04-15T02:07:58.469Z,2.54
2023-04-15T02:10:25.639Z,2.73
2023-04-15T02:12:52.363Z,1.99
2023-04-15T02:15:19.273Z,1.95
2023-04-15T02:17:50.980Z,3.10
2023-04-15T02:20:19.297Z,1.90
2023-04-15T02:22:46.202Z,2.51
2023-04-15T02:25:16.857Z,2.36
2023-04-15T02:27:46.900Z,-0.03
2023-04-15T02:30:15.933Z,1.23
2023-04-15T02:32:45.195Z,2.32
2023-04-15T02:35:12.551Z,1.12
2023-04-15T02:37:43.601Z,1.83
2023-04-15T02:40:12.440Z,1.86
2023-04-15T02:42:40.339Z,2.79
2023-04-15T02:45:10.355Z,1.20
2023-04-15T02:47:37.168Z,2.33
2023-04-15T02:50:09.570Z,2.38
2023-04-15T02:52:36.814Z,1.63
2023-04-15T02:55:05.938Z,1.62
2023-04-15T02:57:32.740Z,1.68
2023-04-15T03:00:06.261Z,1.93
2023-04-15T03:02:36.538Z,0.06
2023-04-15T03:05:06.181Z,1.54
2023-04-15T03:07:33.480Z,2.00
2023-04-15T03:10:02.342Z,0.81
2023-04-15T03:12:30.533Z,0.19
2023-04-15T03:14:58.304Z,1.08
2023-04-15T03:17:32.885Z,0.48
2023-04-15T03:20:02.087Z,1.58
2023-04-15T03:22:28.991Z,2.03
2023-04-15T03:24:56.241Z,2.17
2023-04-15T03:27:23.359Z,1.79
2023-04-15T03:29:51.375Z,2.38
2023-04-15T03:32:18.676Z,1.11
2023-04-15T03:34:45.438Z,1.59
2023-04-15T03:37:12.230Z,2.92
2023-04-15T03:39:39.281Z,3.01
2023-04-15T03:42:06.263Z,2.35
2023-04-15T03:44:32.957Z,0.92
2023-04-15T03:46:59.786Z,2.42
2023-04-15T03:49:26.513Z,2.73
2023-04-15T03:51:53.473Z,1.18
2023-04-15T03:54:20.172Z,2.25
2023-04-15T03:56:47.062Z,1.77
2023-04-15T03:59:13.771Z,1.90
2023-04-15T04:01:40.464Z,1.13
2023-04-15T04:04:07.715Z,1.81
2023-04-15T04:06:35.084Z,2.21
2023-04-15T04:09:02.808Z,2.51
2023-04-15T04:11:29.787Z,1.83
2023-04-15T04:13:56.639Z,2.04
2023-04-15T04:16:23.476Z,1.87
2023-04-15T04:18:50.416Z,1.28
2023-04-15T04:21:17.342Z,1.85
2023-04-15T04:23:44.144Z,1.87
2023-04-15T04:26:11.027Z,2.12
2023-04-15T04:28:39.617Z,0.25
2023-04-15T04:31:07.906Z,2.15
2023-04-15T04:33:35.084Z,3.27
2023-04-15T04:36:02.092Z,1.08
2023-04-15T04:38:28.850Z,0.09
2023-04-15T04:40:55.627Z,2.63
2023-04-15T04:43:22.430Z,2.78
2023-04-15T04:45:49.298Z,2.44
2023-04-15T04:48:17.153Z,0.51
2023-04-15T04:50:44.893Z,2.03
2023-04-15T04:53:12.062Z,2.07
2023-04-15T04:55:38.807Z,0.15
2023-04-15T04:58:05.749Z,1.55
2023-04-15T05:00:33.064Z,2.02
2023-04-15T05:03:00.167Z,2.82
2023-04-15T05:05:27.137Z,1.04
2023-04-15T05:07:54.020Z,1.29
2023-04-15T05:10:21.310Z,2.22
2023-04-15T05:12:48.101Z,-0.08
2023-04-15T05:15:14.799Z,0.23
2023-04-15T05:17:41.655Z,1.09
2023-04-15T05:20:08.855Z,-0.54
2023-04-15T05:22:35.936Z,2.09
2023-04-15T05:25:02.962Z,3.34
2023-04-15T05:27:29.963Z,-0.24
2023-04-15T05:29:56.833Z,2.60
2023-04-15T05:32:23.831Z,2.57
2023-04-15T05:34:50.825Z,0.78
2023-04-15T05:37:17.818Z,1.96
2023-04-15T05:39:44.572Z,3.36
2023-04-15T05:42:11.524Z,2.33
2023-04-15T05:44:38.603Z,3.17
2023-04-15T05:47:06.257Z,2.39
2023-04-15T05:49:33.155Z,1.10
2023-04-15T05:51:59.892Z,1.42
2023-04-15T05:54:27.913Z,2.20
2023-04-15T05:56:55.147Z,0.42
2023-04-15T05:59:22.434Z,0.36
2023-04-15T06:01:50.148Z,2.39
2023-04-15T06:04:17.906Z,1.64
2023-04-15T06:06:44.836Z,2.73
2023-04-15T06:09:11.698Z,2.70
2023-04-15T06:11:38.751Z,1.69
2023-04-15T06:14:05.467Z,1.25
2023-04-15T06:16:32.328Z,1.82
2023-04-15T06:18:59.116Z,1.86
2023-04-15T06:21:25.933Z,2.71
2023-04-15T06:23:53.299Z,2.62
2023-04-15T06:26:20.642Z,2.26
2023-04-15T06:28:47.557Z,0.71
2023-04-15T06:31:14.686Z,3.00
2023-04-15T06:33:41.479Z,3.09
2023-04-15T06:36:08.178Z,1.44
2023-04-15T06:38:35.064Z,2.52
2023-04-15T06:41:03.410Z,2.43
2023-04-15T06:43:30.832Z,1.92
2023-04-15T06:45:57.556Z,2.75
2023-04-15T06:48:24.951Z,2.76
2023-04-15T06:50:53.183Z,3.34
2023-04-15T06:53:19.885Z,1.99
2023-04-15T06:55:46.649Z,1.61
2023-04-15T06:58:13.410Z,2.56
2023-04-15T07:00:40.689Z,2.15
2023-04-15T07:03:11.090Z,2.66
2023-04-15T07:05:38.785Z,2.98
2023-04-15T07:08:06.940Z,3.07
2023-04-15T07:10:34.428Z,1.48
2023-04-15T07:13:01.902Z,2.42
2023-04-15T07:15:29.301Z,2.88
2023-04-15T07:17:56.316Z,3.13
2023-04-15T07:20:23.396Z,1.97
2023-04-15T07:22:50.123Z,2.83
2023-04-15T07:25:17.802Z,3.83
2023-04-15T07:27:44.903Z,3.27
2023-04-15T07:30:12.846Z,2.58
2023-04-15T07:32:40.562Z,3.79
2023-04-15T07:35:08.585Z,3.95
2023-04-15T07:37:36.344Z,3.22
2023-04-15T07:40:05.076Z,4.23
2023-04-15T07:42:31.866Z,5.01
2023-04-15T07:44:58.634Z,4.16
2023-04-15T07:47:25.866Z,4.06
2023-04-15T07:49:53.786Z,4.35
2023-04-15T07:52:20.544Z,3.52
2023-04-15T07:54:47.208Z,4.49
2023-04-15T07:57:13.985Z,3.01
2023-04-15T07:59:40.733Z,5.13
2023-04-15T08:02:08.880Z,4.01
2023-04-15T08:04:35.880Z,5.17
2023-04-15T08:07:04.232Z,7.28
2023-04-15T08:09:31.347Z,4.28
2023-04-15T08:11:58.125Z,4.75
2023-04-15T08:14:25.493Z,4.38
2023-04-15T08:16:52.693Z,5.32
2023-04-15T08:19:19.947Z,4.84
2023-04-15T08:21:46.893Z,4.80
2023-04-15T08:24:13.707Z,5.35
2023-04-15T08:26:40.584Z,4.88
2023-04-15T08:29:07.776Z,4.39
2023-04-15T08:31:34.851Z,4.82
2023-04-15T08:34:01.776Z,6.61
2023-04-15T08:36:28.641Z,6.04
2023-04-15T08:38:56.137Z,4.82
2023-04-15T08:41:27.411Z,5.36
2023-04-15T08:44:06.916Z,4.72
2023-04-15T08:46:34.976Z,4.66
2023-04-15T08:49:05.250Z,6.48
2023-04-15T08:51:32.984Z,5.38
2023-04-15T08:54:01.554Z,5.38
2023-04-15T08:56:28.451Z,5.19
2023-04-15T08:58:55.744Z,5.99
2023-04-15T09:01:23.424Z,5.19
2023-04-15T09:03:51.015Z,4.74
2023-04-15T09:06:18.777Z,4.86
2023-04-15T09:08:45.824Z,6.22
2023-04-15T09:11:12.625Z,5.52
2023-04-15T09:13:40.193Z,5.31
2023-04-15T09:16:08.645Z,5.52
2023-04-15T09:18:39.734Z,5.62
2023-04-15T09:21:09.807Z,6.06
2023-04-15T09:23:38.508Z,5.63
2023-04-15T09:26:05.872Z,7.13
2023-04-15T09:28:32.811Z,6.35
2023-04-15T09:31:01.292Z,6.11
2023-04-15T09:33:29.295Z,4.85
2023-04-15T09:36:06.111Z,6.51
2023-04-15T09:38:33.071Z,5.84
2023-04-15T09:41:00.224Z,5.91
2023-04-15T09:43:41.061Z,6.52
2023-04-15T09:46:07.860Z,6.42
2023-04-15T09:48:36.525Z,6.04
2023-04-15T09:51:03.499Z,6.13
2023-04-15T09:53:34.419Z,5.94
2023-04-15T09:56:02.804Z,5.77
2023-04-15T09:58:31.991Z,5.86
2023-04-15T10:01:00.489Z,4.64
2023-04-15T10:03:30.337Z,5.83
2023-04-15T10:06:00.284Z,6.47
2023-04-15T10:08:29.201Z,6.39
2023-04-15T10:10:56.788Z,6.06
2023-04-15T10:13:26.798Z,6.95
2023-04-15T10:15:59.607Z,6.31
2023-04-15T10:18:28.158Z,5.43
2023-04-15T10:20:55.665Z,5.15
2023-04-15T10:23:25.567Z,5.70
2023-04-15T10:25:56.699Z,6.39
2023-04-15T10:28:24.131Z,4.97
2023-04-15T10:30:52.736Z,4.62
2023-04-15T10:33:22.876Z,5.20
2023-04-15T10:35:51.767Z,5.19
2023-04-15T10:38:37.500Z,6.36
2023-04-15T10:41:28.148Z,5.19
2023-04-15T10:43:57.954Z,6.67
2023-04-15T10:46:36.056Z,6.73
2023-04-15T10:49:08.320Z,5.32
2023-04-15T10:51:41.935Z,6.05
2023-04-15T10:54:16.269Z,5.73
2023-04-15T10:56:44.885Z,7.16
2023-04-15T10:59:12.728Z,3.63
2023-04-15T11:01:58.856Z,6.12
2023-04-15T11:04:55.114Z,6.24
2023-04-15T11:07:44.348Z,6.64
2023-04-15T11:10:13.817Z,7.21
2023-04-15T11:12:42.169Z,3.46
2023-04-15T11:15:43.061Z,5.18
2023-04-15T11:18:16.846Z,7.52
2023-04-15T11:20:45.427Z,6.23
2023-04-15T11:23:15.295Z,5.81
2023-04-15T11:25:43.312Z,6.53
2023-04-15T11:28:12.304Z,7.23
2023-04-15T11:30:41.349Z,7.79
2023-04-15T11:33:10.186Z,6.92
2023-04-15T11:35:37.023Z,7.63
2023-04-15T11:38:12.412Z,7.73
2023-04-15T11:40:39.940Z,6.77
2023-04-15T11:43:15.863Z,7.21
2023-04-15T11:45:56.472Z,6.80
2023-04-15T11:48:26.407Z,7.85
2023-04-15T11:50:56.325Z,6.28
2023-04-15T11:53:24.182Z,6.83
2023-04-15T11:55:53.998Z,7.89
2023-04-15T11:58:23.434Z,8.55
2023-04-15T12:01:00.288Z,8.71
2023-04-15T12:03:28.663Z,5.93
2023-04-15T12:06:13.502Z,6.23
2023-04-15T12:08:55.447Z,7.27
2023-04-15T12:11:31.396Z,8.18
2023-04-15T12:14:11.387Z,8.00
2023-04-15T12:16:45.703Z,6.48
2023-04-15T12:19:19.442Z,7.00
2023-04-15T12:21:48.707Z,5.82
2023-04-15T12:24:15.524Z,6.62
2023-04-15T12:26:53.720Z,6.44
2023-04-15T12:29:25.412Z,6.56
2023-04-15T12:31:53.506Z,5.66
2023-04-15T12:34:32.412Z,5.77
2023-04-15T12:37:03.604Z,6.18
2023-04-15T12:39:37.868Z,5.25
2023-04-15T12:42:05.433Z,5.61
2023-04-15T12:44:33.217Z,6.16
2023-04-15T12:47:00.617Z,5.63
2023-04-15T12:49:28.209Z,6.02
2023-04-15T12:51:57.116Z,5.71
2023-04-15T12:54:23.908Z,4.63
2023-04-15T12:56:51.406Z,5.51
2023-04-15T12:59:18.811Z,5.08
2023-04-15T13:01:47.562Z,4.11
2023-04-15T13:04:15.200Z,4.53
2023-04-15T13:06:42.291Z,4.35
2023-04-15T13:09:09.411Z,4.75
2023-04-15T13:11:36.769Z,4.84
2023-04-15T13:14:09.465Z,5.43
2023-04-15T13:16:36.675Z,4.84
2023-04-15T13:19:04.022Z,6.16
2023-04-15T13:21:35.294Z,5.27
2023-04-15T13:24:04.276Z,5.79
2023-04-15T13:26:31.759Z,4.38
2023-04-15T13:28:59.127Z,5.00
2023-04-15T13:31:26.352Z,5.18
2023-04-15T13:33:53.374Z,4.79
2023-04-15T13:36:20.126Z,6.61
2023-04-15T13:38:48.041Z,5.76
2023-04-15T13:41:16.494Z,6.19
2023-04-15T13:43:43.875Z,5.08
2023-04-15T13:46:11.238Z,7.28
2023-04-15T13:48:38.272Z,5.80
2023-04-15T13:51:05.030Z,5.98
2023-04-15T13:53:37.753Z,6.82
2023-04-15T13:56:08.709Z,5.59
2023-04-15T13:58:36.964Z,5.91
2023-04-15T14:01:05.839Z,5.47
2023-04-15T14:03:34.574Z,5.06
2023-04-15T14:06:01.635Z,5.13
2023-04-15T14:08:29.013Z,5.80
2023-04-15T14:10:55.812Z,6.92
2023-04-15T14:13:23.088Z,6.08
2023-04-15T14:15:49.883Z,6.46
2023-04-15T14:18:16.856Z,6.89
2023-04-15T14:20:43.759Z,4.85
2023-04-15T14:23:10.477Z,6.70
2023-04-15T14:25:39.303Z,6.32
2023-04-15T14:28:06.154Z,5.21
2023-04-15T14:30:33.201Z,7.68
2023-04-15T14:33:00.104Z,4.97
2023-04-15T14:35:27.580Z,7.21
2023-04-15T14:37:55.758Z,7.38
2023-04-15T14:40:22.846Z,5.67
2023-04-15T14:42:49.820Z,6.39
2023-04-15T14:45:17.610Z,5.67
2023-04-15T14:47:45.075Z,5.79
2023-04-15T14:50:13.465Z,5.14
2023-04-15T14:52:40.236Z,5.11
2023-04-15T14:55:12.034Z,6.23
2023-04-15T14:57:40.132Z,6.13
2023-04-15T15:00:08.822Z,6.44
2023-04-15T15:02:39.597Z,6.32
2023-04-15T15:05:09.006Z,6.83
2023-04-15T15:07:37.353Z,7.34
2023-04-15T15:10:04.725Z,7.12
2023-04-15T15:12:32.101Z,6.61
2023-04-15T15:15:00.416Z,6.28
2023-04-15T15:17:27.433Z,6.52
2023-04-15T15:19:55.721Z,5.03
2023-04-15T15:22:22.548Z,5.02
2023-04-15T15:24:49.283Z,5.54
2023-04-15T15:27:16.097Z,5.75
2023-04-15T15:29:43.577Z,5.83
2023-04-15T15:32:10.362Z,6.34
2023-04-15T15:34:37.005Z,6.96
2023-04-15T15:37:03.732Z,4.98
2023-04-15T15:39:30.487Z,5.12
2023-04-15T15:41:57.620Z,5.94
2023-04-15T15:44:24.406Z,6.03
2023-04-15T15:46:51.481Z,6.37
2023-04-15T15:49:18.367Z,5.72
2023-04-15T15:51:45.973Z,5.00
2023-04-15T15:54:13.756Z,4.19
2023-04-15T15:56:40.658Z,5.12
2023-04-15T15:59:07.375Z,4.85
2023-04-15T16:01:34.356Z,4.69
2023-04-15T16:04:01.361Z,4.23
2023-04-15T16:06:28.936Z,4.89
2023-04-15T16:08:55.708Z,4.58
2023-04-15T16:11:23.337Z,4.95
2023-04-15T16:13:50.109Z,4.75
2023-04-15T16:16:17.018Z,3.33
2023-04-15T16:18:44.021Z,3.83
2023-04-15T16:21:10.957Z,4.29
2023-04-15T16:23:38.345Z,3.66
2023-04-15T16:26:05.257Z,3.31
2023-04-15T16:28:32.192Z,3.74
2023-04-15T16:30:59.461Z,3.07
2023-04-15T16:33:26.967Z,4.12
2023-04-15T16:35:53.844Z,3.97
2023-04-15T16:38:21.677Z,3.62
2023-04-15T16:40:48.460Z,4.24
2023-04-15T16:43:15.522Z,3.53
2023-04-15T16:45:44.432Z,4.05
2023-04-15T16:48:11.332Z,3.41
2023-04-15T16:50:38.549Z,4.21
2023-04-15T16:53:05.356Z,3.79
2023-04-15T16:55:32.034Z,5.27
2023-04-15T16:58:02.458Z,4.22
2023-04-15T17:00:31.604Z,3.84
2023-04-15T17:03:00.731Z,4.47
2023-04-15T17:05:28.163Z,2.22
2023-04-15T17:07:55.520Z,4.16
2023-04-15T17:10:22.612Z,4.18
2023-04-15T17:12:52.069Z,4.80
2023-04-15T17:15:20.135Z,3.05
2023-04-15T17:17:46.954Z,3.98
2023-04-15T17:20:14.717Z,3.29
2023-04-15T17:22:42.274Z,4.26
2023-04-15T17:25:09.471Z,4.18
2023-04-15T17:27:36.377Z,3.22
2023-04-15T17:30:03.239Z,3.16
2023-04-15T17:32:34.473Z,3.67
2023-04-15T17:35:05.616Z,4.03
2023-04-15T17:37:36.119Z,3.79
2023-04-15T17:40:04.047Z,3.47
2023-04-15T17:42:32.270Z,4.68
2023-04-15T17:45:04.179Z,2.93
2023-04-15T17:47:34.270Z,3.29
2023-04-15T17:50:01.728Z,3.64
2023-04-15T17:52:28.994Z,4.78
2023-04-15T17:54:55.933Z,5.38
2023-04-15T17:57:22.922Z,3.20
2023-04-15T17:59:49.686Z,4.17
2023-04-15T18:02:17.217Z,3.50
2023-04-15T18:04:44.172Z,2.54
2023-04-15T18:07:11.167Z,3.18
2023-04-15T18:09:38.063Z,4.12
2023-04-15T18:12:07.574Z,3.44
2023-04-15T18:14:35.359Z,2.53
2023-04-15T18:17:02.755Z,2.64
2023-04-15T18:19:30.913Z,2.73
2023-04-15T18:22:00.263Z,3.91
2023-04-15T18:24:27.840Z,2.40
2023-04-15T18:26:54.579Z,1.08
2023-04-15T18:29:21.350Z,2.84
2023-04-15T18:31:48.428Z,2.83
2023-04-15T18:34:15.728Z,2.82
2023-04-15T18:36:42.769Z,2.65
2023-04-15T18:39:09.796Z,4.66
2023-04-15T18:41:36.692Z,2.82
2023-04-15T18:44:03.401Z,2.52
2023-04-15T18:46:30.712Z,3.42
2023-04-15T18:48:57.484Z,2.67
2023-04-15T18:51:24.263Z,2.78
2023-04-15T18:53:51.579Z,4.05
2023-04-15T18:56:18.393Z,2.20
2023-04-15T18:59:11.553Z,3.90
2023-04-15T19:01:32.601Z,2.83
2023-04-15T19:03:59.681Z,2.79
2023-04-15T19:06:27.388Z,2.40
2023-04-15T19:08:54.975Z,1.49
2023-04-15T19:11:21.847Z,2.59
2023-04-15T19:13:48.660Z,2.72
2023-04-15T19:16:15.877Z,1.36
2023-04-15T19:18:43.174Z,0.62
2023-04-15T19:21:11.813Z,2.33
2023-04-15T19:23:39.288Z,1.47
2023-04-15T19:26:08.274Z,2.77
2023-04-15T19:28:35.039Z,2.85
2023-04-15T19:31:02.086Z,2.84
2023-04-15T19:33:31.351Z,1.96
2023-04-15T19:36:04.110Z,3.87
2023-04-15T19:38:31.913Z,2.44
2023-04-15T19:40:59.652Z,1.87
2023-04-15T19:43:26.514Z,2.37
2023-04-15T19:45:54.659Z,1.68
2023-04-15T19:48:22.893Z,2.13
2023-04-15T19:50:50.095Z,1.95
2023-04-15T19:53:17.293Z,0.55
2023-04-15T19:55:44.261Z,1.18
2023-04-15T19:58:11.825Z,2.40
2023-04-15T20:00:38.855Z,0.84
2023-04-15T20:03:05.908Z,2.15
2023-04-15T20:05:32.758Z,1.76
2023-04-15T20:08:01.442Z,1.31
2023-04-15T20:10:28.313Z,1.77
2023-04-15T20:12:55.557Z,2.17
2023-04-15T20:15:23.952Z,1.94
2023-04-15T20:17:51.241Z,2.52
2023-04-15T20:20:18.454Z,2.06
2023-04-15T20:22:45.425Z,1.58
2023-04-15T20:25:12.498Z,1.23
2023-04-15T20:27:39.582Z,1.07
2023-04-15T20:30:07.390Z,1.43
2023-04-15T20:32:36.139Z,1.44
2023-04-15T20:35:04.442Z,2.75
2023-04-15T20:37:33.643Z,1.61
2023-04-15T20:40:01.837Z,2.51
2023-04-15T20:42:33.675Z,2.93
2023-04-15T20:45:01.389Z,2.66
2023-04-15T20:47:28.487Z,1.90
2023-04-15T20:49:55.724Z,2.94
2023-04-15T20:52:22.474Z,2.59
2023-04-15T20:54:49.310Z,1.11
2023-04-15T20:57:16.891Z,2.64
2023-04-15T20:59:43.867Z,2.31
2023-04-15T21:02:11.066Z,2.74
2023-04-15T21:04:41.096Z,2.89
2023-04-15T21:07:08.106Z,3.61
2023-04-15T21:09:34.847Z,2.86
2023-04-15T21:12:02.424Z,1.75
2023-04-15T21:14:29.518Z,3.74
2023-04-15T21:16:59.078Z,3.09
2023-04-15T21:19:26.067Z,2.71
2023-04-15T21:21:52.811Z,2.08
2023-04-15T21:24:19.606Z,3.27
2023-04-15T21:26:47.030Z,3.40
2023-04-15T21:29:13.914Z,2.36
2023-04-15T21:31:41.277Z,3.94
2023-04-15T21:34:08.242Z,2.46
2023-04-15T21:36:34.995Z,2.55
2023-04-15T21:39:02.576Z,2.68
2023-04-15T21:41:29.973Z,2.64
2023-04-15T21:43:57.366Z,2.59
2023-04-15T21:46:25.690Z,3.44
2023-04-15T21:48:59.863Z,2.34
2023-04-15T21:51:26.919Z,3.35
2023-04-15T21:53:53.839Z,2.95
2023-04-15T21:56:23.143Z,4.23
2023-04-15T21:58:50.140Z,3.89
2023-04-15T22:01:17.565Z,4.54
2023-04-15T22:03:44.557Z,4.63
2023-04-15T22:06:13.623Z,4.35
2023-04-15T22:08:54.787Z,4.07
2023-04-15T22:11:26.974Z,4.44
2023-04-15T22:13:54.386Z,3.16
2023-04-15T22:16:21.264Z,3.07
2023-04-15T22:18:48.076Z,4.47
2023-04-15T22:21:15.057Z,3.98
2023-04-15T22:23:41.800Z,3.13
2023-04-15T22:26:08.585Z,3.14
2023-04-15T22:28:35.307Z,3.41
2023-04-15T22:31:02.926Z,2.30
2023-04-15T22:33:29.660Z,3.17
2023-04-15T22:35:56.984Z,2.37
2023-04-15T22:38:24.461Z,4.30
2023-04-15T22:40:53.948Z,3.42
2023-04-15T22:43:20.726Z,3.38
2023-04-15T22:45:51.481Z,4.65
2023-04-15T22:48:19.163Z,2.57
2023-04-15T22:50:46.606Z,2.35
2023-04-15T22:53:20.125Z,4.07
2023-04-15T22:55:48.166Z,3.80
2023-04-15T22:58:16.640Z,2.89
2023-04-15T23:00:43.498Z,2.65
2023-04-15T23:03:11.007Z,2.59
2023-04-15T23:05:40.056Z,2.92
2023-04-15T23:08:07.440Z,3.16
2023-04-15T23:10:34.548Z,1.73
2023-04-15T23:13:01.928Z,1.92
2023-04-15T23:15:28.671Z,3.31
2023-04-15T23:17:55.469Z,1.27
2023-04-15T23:20:22.255Z,1.43
2023-04-15T23:22:49.464Z,2.24
2023-04-15T23:25:16.629Z,1.94
2023-04-15T23:27:43.529Z,1.56
2023-04-15T23:30:10.485Z,2.44
2023-04-15T23:32:37.198Z,2.70
2023-04-15T23:35:04.468Z,-0.02
2023-04-15T23:37:34.342Z,2.55
2023-04-15T23:40:01.229Z,2.35
2023-04-15T23:42:28.788Z,2.76
2023-04-15T23:44:55.778Z,3.43
2023-04-15T23:47:22.837Z,2.30
2023-04-15T23:49:50.074Z,0.97
2023-04-15T23:52:17.352Z,-0.17
2023-04-15T23:54:44.345Z,1.62
2023-04-15T23:57:11.276Z,0.86
2023-04-15T23:59:38.077Z,1.19
